ADDS METAR Data INFO
IDs: Format: Raw Decoded Include TAF

Data at: 2319 UTC 15 Jul 2018

KHNZ 152315Z AUTO 00000KT 10SM CLR 30/18 A3000 RMK AO2 T02980183
KHNZ 152255Z AUTO 00000KT 10SM CLR 31/17 A2999 RMK AO2 T03080174
KHNZ 152235Z AUTO 19004KT 10SM CLR 31/18 A2999 RMK AO2 T03130177
KHNZ 152215Z AUTO 17004KT 10SM CLR 31/18 A2999 RMK AO2 T03130175
KHNZ 152155Z AUTO 19005KT 10SM CLR 32/17 A3000 RMK AO2 T03170169
KHNZ 152135Z AUTO 10004KT 10SM CLR 32/16 A3000 RMK AO2 T03220155
KHNZ 152115Z AUTO 26004KT 10SM CLR 32/16 A3000 RMK AO2 T03210155
KHNZ 152055Z AUTO 23005KT 10SM CLR 32/16 A3000 RMK AO2 T03220159
KHNZ 152035Z AUTO 00000KT 10SM CLR 32/14 A3001 RMK AO2 T03180143
KHNZ 152015Z AUTO 25006KT 10SM CLR 32/16 A3002 RMK AO2 T03210161
KHNZ 151955Z AUTO 26005KT 10SM CLR 32/15 A3003 RMK AO2 T03170150
KHNZ 151935Z AUTO 00000KT 10SM CLR 32/17 A3004 RMK AO2 T03150168
KHNZ 151915Z AUTO 23005KT 10SM CLR 31/18 A3004 RMK AO2 T03110177
KHNZ 151855Z AUTO 00000KT 10SM CLR 31/17 A3004 RMK AO2 T03060172
KHNZ 151835Z AUTO 21006KT 10SM CLR 31/18 A3005 RMK AO2 T03080178
KHNZ 151815Z AUTO 18006KT 10SM CLR 31/18 A3005 RMK AO2 T03090175
KHNZ 151755Z AUTO 26005KT 10SM CLR 31/18 A3006 RMK AO2 T03110178 10311 20202
KHNZ 151735Z AUTO 22005KT 10SM CLR 30/18 A3006 RMK AO2 T03030176
KHNZ 151715Z AUTO 21005KT 10SM CLR 30/19 A3007 RMK AO2 T03030187
KHNZ 151655Z AUTO 20005KT 10SM SCT039 30/19 A3007 RMK AO2 T02980189
KHNZ 151635Z AUTO 18003KT 10SM SCT037 29/20 A3007 RMK AO2 T02920195
KHNZ 151615Z AUTO 26004KT 10SM CLR 29/20 A3007 RMK AO2 T02890204
KHNZ 151555Z AUTO 25006KT 10SM CLR 28/20 A3007 RMK AO2 T02820201
KHNZ 151535Z AUTO 23007KT 10SM CLR 28/20 A3008 RMK AO2 T02760201
KHNZ 151515Z AUTO 22005KT 10SM CLR 27/20 A3008 RMK AO2 T02710203
KHNZ 151455Z AUTO 24006KT 10SM CLR 27/20 A3009 RMK AO2 T02650201
KHNZ 151435Z AUTO 21008KT 10SM CLR 26/20 A3009 RMK AO2 T02620200
KHNZ 151415Z AUTO 23009KT 10SM CLR 25/20 A3009 RMK AO2 T02540197
KHNZ 151355Z AUTO 21009KT 10SM CLR 25/20 A3010 RMK AO2 T02460195
KHNZ 151335Z AUTO 22008KT 10SM CLR 25/19 A3010 RMK AO2 T02450194
KHNZ 151315Z AUTO 21008KT 10SM CLR 23/19 A3011 RMK AO2 T02330187
KHNZ 151255Z AUTO 21007KT 10SM CLR 22/18 A3011 RMK AO2 T02230181
KHNZ 151235Z AUTO 22009KT 10SM CLR 22/18 A3011 RMK AO2 T02190177
KHNZ 151215Z AUTO 21006KT 10SM CLR 21/18 A3010 RMK AO2 T02130177
KHNZ 151155Z AUTO 20004KT 10SM CLR 20/18 A3011 RMK AO2 T02010175 10201 20165
KHNZ 151135Z AUTO 19004KT 10SM CLR 19/17 A3011 RMK AO2 T01890167
KHNZ 151115Z AUTO 20003KT 10SM CLR 18/16 A3011 RMK AO2 T01790163
KHNZ 151055Z AUTO 20004KT 10SM CLR 17/16 A3011 RMK AO2 T01710159
KHNZ 151035Z AUTO 22003KT 10SM CLR 17/16 A3010 RMK AO2 T01670155
KHNZ 151015Z AUTO 20004KT 10SM CLR 17/16 A3009 RMK AO2 T01680155
KHNZ 150955Z AUTO 20004KT 10SM CLR 17/15 A3009 RMK AO2 T01660151
KHNZ 150935Z AUTO 20005KT 10SM CLR 17/15 A3009 RMK AO2 T01680150
KHNZ 150915Z AUTO 20004KT 10SM CLR 17/15 A3009 RMK AO2 T01680150
KHNZ 150855Z AUTO 20004KT 10SM CLR 17/15 A3009 RMK AO2 T01700150
KHNZ 150835Z AUTO 20005KT 10SM CLR 17/15 A3009 RMK AO2 T01730150
KHNZ 150815Z AUTO 20005KT 10SM CLR 17/15 A3009 RMK AO2 T01730147
KHNZ 150755Z AUTO 20005KT 10SM CLR 17/15 A3010 RMK AO2 T01720146
KHNZ 150735Z AUTO 19004KT 10SM CLR 17/15 A3010 RMK AO2 T01710146
KHNZ 150715Z AUTO 19003KT 10SM CLR 17/15 A3010 RMK AO2 T01680145
KHNZ 150655Z AUTO 19003KT 10SM CLR 18/15 A3011 RMK AO2 T01800145
KHNZ 150635Z AUTO 18004KT 10SM CLR 19/14 A3011 RMK AO2 T01860144
KHNZ 150615Z AUTO 18004KT 10SM CLR 19/14 A3012 RMK AO2 T01850142
KHNZ 150555Z AUTO 17004KT 10SM CLR 19/14 A3012 RMK AO2 T01900140 10250 20190 402910150
KHNZ 150535Z AUTO 17004KT 10SM CLR 19/14 A3013 RMK AO2 T01940140
KHNZ 150515Z AUTO 17003KT 10SM CLR 20/14 A3013 RMK AO2 T01970137
KHNZ 150455Z AUTO 18003KT 10SM CLR 20/14 A3013 RMK AO2 T02000136
KHNZ 150435Z AUTO 17004KT 10SM CLR 20/14 A3013 RMK AO2 T02000135
KHNZ 150415Z AUTO 18004KT 10SM CLR 20/13 A3014 RMK AO2 T02020133
KHNZ 150355Z AUTO 18004KT 10SM CLR 20/13 A3014 RMK AO2 T02010132
KHNZ 150335Z AUTO 19004KT 10SM CLR 20/13 A3013 RMK AO2 T02030131
KHNZ 150315Z AUTO 17003KT 10SM CLR 21/13 A3013 RMK AO2 T02120128
KHNZ 150255Z AUTO 17003KT 10SM CLR 21/13 A3012 RMK AO2 T02140128
KHNZ 150235Z AUTO 16004KT 10SM CLR 22/13 A3012 RMK AO2 T02200129
KHNZ 150215Z AUTO 15004KT 10SM CLR 22/13 A3012 RMK AO2 T02200131
KHNZ 150155Z AUTO 15005KT 10SM CLR 23/13 A3012 RMK AO2 T02270128
KHNZ 150135Z AUTO 14003KT 10SM CLR 23/13 A3011 RMK AO2 T02300130
KHNZ 150115Z AUTO 14003KT 10SM CLR 23/13 A3011 RMK AO2 T02320127
KHNZ 150055Z AUTO 00000KT 10SM CLR 22/15 A3011 RMK AO2 T02170151
KHNZ 150035Z AUTO 00000KT 10SM CLR 22/16 A3010 RMK AO2 T02190160
KHNZ 150015Z AUTO 00000KT 10SM CLR 24/15 A3010 RMK AO2 T02410154
KHNZ 142355Z AUTO 00000KT 10SM CLR 25/15 A3010 RMK AO2 T02520148 10291 20252
KHNZ 142335Z AUTO 03003KT 10SM CLR 26/15 A3010 RMK AO2 T02640150
KHNZ 142315Z AUTO 00000KT 10SM CLR 28/14 A3010 RMK AO2 T02750140
KHNZ 142255Z AUTO 00000KT 10SM CLR 28/14 A3010 RMK AO2 T02780141
KHNZ 142235Z AUTO 34003KT 10SM CLR 28/14 A3010 RMK AO2 T02810137
KHNZ 142215Z AUTO 01004KT 10SM CLR 29/13 A3011 RMK AO2 T02850134
KHNZ 142155Z AUTO 36004KT 10SM CLR 29/14 A3011 RMK AO2 T02870135
KHNZ 142135Z AUTO 36003KT 10SM CLR 29/13 A3012 RMK AO2 T02870129
KHNZ 142115Z AUTO 02003KT 10SM CLR 29/13 A3012 RMK AO2 T02900131
KHNZ 142055Z AUTO 34003KT 10SM CLR 29/13 A3013 RMK AO2 T02880130
KHNZ 142035Z AUTO 04005KT 10SM CLR 29/13 A3014 RMK AO2 T02870129
KHNZ 142015Z AUTO 31003KT 10SM CLR 29/13 A3014 RMK AO2 T02870129
KHNZ 141955Z AUTO 35004KT 10SM CLR 29/13 A3015 RMK AO2 T02880127
KHNZ 141935Z AUTO 05004KT 10SM CLR 29/12 A3016 RMK AO2 T02890124
KHNZ 141915Z AUTO 00000KT 10SM CLR 28/12 A3016 RMK AO2 T02830117
KHNZ 141855Z AUTO 03004KT 10SM CLR 28/12 A3016 RMK AO2 T02820116
KHNZ 141835Z AUTO 03005KT 10SM CLR 28/13 A3017 RMK AO2 T02780130
KHNZ 141815Z AUTO 00000KT 10SM CLR 28/12 A3018 RMK AO2 T02780123
KHNZ 141755Z AUTO 33004KT 10SM CLR 27/12 A3018 RMK AO2 T02740118 10276 20176
KHNZ 141735Z AUTO 03005KT 10SM CLR 27/13 A3018 RMK AO2 T02720128
KHNZ 141715Z AUTO 06003KT 10SM CLR 27/13 A3018 RMK AO2 T02670133
KHNZ 141655Z AUTO 13004KT 10SM CLR 27/13 A3019 RMK AO2 T02670129
KHNZ 141635Z AUTO 00000KT 10SM CLR 27/13 A3020 RMK AO2 T02670127
KHNZ 141615Z AUTO 04003KT 10SM CLR 26/14 A3020 RMK AO2 T02620136
KHNZ 141555Z AUTO 00000KT 10SM CLR 26/10 A3021 RMK AO2 T02620101
KHNZ 141535Z AUTO 00000KT 10SM CLR 25/12 A3021 RMK AO2 T02540122
KHNZ 141515Z AUTO 12003KT 10SM CLR 25/14 A3021 RMK AO2 T02520135
KHNZ 141455Z AUTO 00000KT 10SM CLR 25/14 A3021 RMK AO2 T02480136
KHNZ 141435Z AUTO 00000KT 10SM CLR 24/14 A3021 RMK AO2 T02410136
KHNZ 141415Z AUTO 00000KT 10SM CLR 24/14 A3021 RMK AO2 T02360141
KHNZ 141355Z AUTO 00000KT 10SM CLR 23/15 A3021 RMK AO2 T02290148
KHNZ 141335Z AUTO 00000KT 10SM CLR 22/15 A3021 RMK AO2 T02220153
KHNZ 141315Z AUTO 00000KT 10SM CLR 21/16 A3020 RMK AO2 T02100163
KHNZ 141255Z AUTO 00000KT 10SM CLR 20/17 A3021 RMK AO2 T02000172
KHNZ 141235Z AUTO 00000KT 10SM CLR 19/17 A3021 RMK AO2 T01920170
KHNZ 141215Z AUTO 00000KT 10SM CLR 19/17 A3021 RMK AO2 T01860171
KHNZ 141155Z AUTO 00000KT 10SM CLR 17/17 A3020 RMK AO2 T01740168 10175 20150
KHNZ 141135Z AUTO 00000KT 10SM CLR 17/17 A3019 RMK AO2 T01690165